createdAt,value
2018-11-14T00:00:15.480Z,4.43
2018-11-14T00:02:43.569Z,4.13
2018-11-14T00:05:11.663Z,5.97
2018-11-14T00:07:39.772Z,5.43
2018-11-14T00:10:08.543Z,4.30
2018-11-14T00:12:36.616Z,4.27
2018-11-14T00:15:05.148Z,4.27
2018-11-14T00:17:33.252Z,6.60
2018-11-14T00:20:01.362Z,7.53
2018-11-14T00:22:29.466Z,8.47
2018-11-14T00:24:57.561Z,7.07
2018-11-14T00:27:25.703Z,7.07
2018-11-14T00:29:53.820Z,7.07
2018-11-14T00:32:21.947Z,6.47
2018-11-14T00:34:50.110Z,6.73
2018-11-14T00:37:18.210Z,6.13
2018-11-14T00:39:46.324Z,5.87
2018-11-14T00:42:14.460Z,6.10
2018-11-14T00:44:42.602Z,5.30
2018-11-14T00:47:10.728Z,5.50
2018-11-14T00:49:38.939Z,5.33
2018-11-14T00:52:07.059Z,5.37
2018-11-14T00:54:35.209Z,5.23
2018-11-14T00:57:03.367Z,5.50
2018-11-14T00:59:31.493Z,4.80
2018-11-14T01:01:59.636Z,4.20
2018-11-14T01:04:27.733Z,4.30
2018-11-14T01:06:55.857Z,3.63
2018-11-14T01:09:23.980Z,4.67
2018-11-14T01:11:52.092Z,7.67
2018-11-14T01:14:20.209Z,9.17
2018-11-14T01:16:48.341Z,12.30
2018-11-14T01:19:16.515Z,12.40
2018-11-14T01:21:44.769Z,12.67
2018-11-14T01:24:12.833Z,13.50
2018-11-14T01:26:40.973Z,11.60
2018-11-14T01:29:09.132Z,11.90
2018-11-14T01:31:37.283Z,11.53
2018-11-14T01:34:05.433Z,15.43
2018-11-14T01:36:33.535Z,12.50
2018-11-14T01:39:01.684Z,12.43
2018-11-14T01:41:29.807Z,10.70
2018-11-14T01:43:57.944Z,12.53
2018-11-14T01:46:26.065Z,13.73
2018-11-14T01:48:54.221Z,9.87
2018-11-14T01:51:22.377Z,10.17
2018-11-14T01:53:50.522Z,10.87
2018-11-14T01:56:18.679Z,10.20
2018-11-14T01:58:46.827Z,11.40
2018-11-14T02:01:14.980Z,11.33
2018-11-14T02:03:43.117Z,12.63
2018-11-14T02:06:11.256Z,11.27
2018-11-14T02:08:39.393Z,11.63
2018-11-14T02:11:07.535Z,11.83
2018-11-14T02:13:35.679Z,12.77
2018-11-14T02:16:03.828Z,9.73
2018-11-14T02:18:31.996Z,10.70
2018-11-14T02:21:00.148Z,8.70
2018-11-14T02:23:28.298Z,12.40
2018-11-14T02:25:56.495Z,10.63
2018-11-14T02:28:24.669Z,10.27
2018-11-14T02:30:52.839Z,13.17
2018-11-14T02:33:21.003Z,9.57
2018-11-14T02:35:49.149Z,12.70
2018-11-14T02:38:17.291Z,14.13
2018-11-14T02:40:45.447Z,13.67
2018-11-14T02:43:13.624Z,7.87
2018-11-14T02:45:41.791Z,9.70
2018-11-14T02:48:09.949Z,10.27
2018-11-14T02:50:38.132Z,8.67
2018-11-14T02:53:06.344Z,10.43
2018-11-14T02:55:34.462Z,8.57
2018-11-14T02:58:02.547Z,8.80
2018-11-14T03:00:30.632Z,8.80
2018-11-14T03:02:58.725Z,9.53
2018-11-14T03:05:26.813Z,8.43
2018-11-14T03:07:54.914Z,9.17
2018-11-14T03:10:23.004Z,8.30
2018-11-14T03:12:51.104Z,11.83
2018-11-14T03:15:20.958Z,15.77
2018-11-14T03:17:49.086Z,15.80
2018-11-14T03:20:19.562Z,13.67
2018-11-14T03:22:47.720Z,11.53
2018-11-14T03:25:16.020Z,10.77
2018-11-14T03:27:44.174Z,8.77
2018-11-14T03:30:15.022Z,10.80
2018-11-14T03:32:43.732Z,9.53
2018-11-14T03:35:12.717Z,9.50
2018-11-14T03:37:40.808Z,9.77
2018-11-14T03:40:10.801Z,8.87
2018-11-14T03:42:38.984Z,7.10
2018-11-14T03:45:07.965Z,7.30
2018-11-14T03:47:36.056Z,7.83
2018-11-14T03:50:04.428Z,8.63
2018-11-14T03:52:32.530Z,19.17
2018-11-14T03:55:00.655Z,8.43
2018-11-14T03:57:28.732Z,9.50
2018-11-14T03:59:56.830Z,9.60
2018-11-14T04:02:24.923Z,8.70
2018-11-14T04:04:53.040Z,7.40
2018-11-14T04:07:21.120Z,6.13
2018-11-14T04:09:49.213Z,6.03
2018-11-14T04:12:17.298Z,6.07
2018-11-14T04:14:45.391Z,5.13
2018-11-14T04:17:13.475Z,5.60
2018-11-14T04:19:41.571Z,5.80
2018-11-14T04:22:09.650Z,6.70
2018-11-14T04:24:37.742Z,6.67
2018-11-14T04:27:05.857Z,6.10
2018-11-14T04:29:33.945Z,6.63
2018-11-14T04:32:02.014Z,5.13
2018-11-14T04:34:30.099Z,5.20
2018-11-14T04:36:58.164Z,5.00
2018-11-14T04:39:26.245Z,4.93
2018-11-14T04:41:54.318Z,4.70
2018-11-14T04:44:22.409Z,4.80
2018-11-14T04:46:50.483Z,5.20
2018-11-14T04:49:18.561Z,4.77
2018-11-14T04:51:46.653Z,5.17
2018-11-14T04:54:14.734Z,5.20
2018-11-14T04:56:42.815Z,5.70
2018-11-14T04:59:10.903Z,5.33
2018-11-14T05:01:38.977Z,5.10
2018-11-14T05:04:07.052Z,6.27
2018-11-14T05:06:35.224Z,6.23
2018-11-14T05:09:03.483Z,6.17
2018-11-14T05:11:31.558Z,6.40
2018-11-14T05:13:59.636Z,5.90
2018-11-14T05:16:27.708Z,6.13
2018-11-14T05:18:55.776Z,5.97
2018-11-14T05:21:23.863Z,6.30
2018-11-14T05:23:51.948Z,7.30
2018-11-14T05:26:20.025Z,8.93
2018-11-14T05:28:48.129Z,15.03
2018-11-14T05:31:16.225Z,8.80
2018-11-14T05:33:44.305Z,6.37
2018-11-14T05:36:12.406Z,6.57
2018-11-14T05:38:40.486Z,6.30
2018-11-14T05:41:08.576Z,6.43
2018-11-14T05:43:36.661Z,6.77
2018-11-14T05:46:04.984Z,8.33
2018-11-14T05:48:33.079Z,10.37
2018-11-14T05:51:01.272Z,5.63
2018-11-14T05:53:29.358Z,5.70
2018-11-14T05:55:57.455Z,5.80
2018-11-14T05:58:25.542Z,5.50
2018-11-14T06:00:53.640Z,5.90
2018-11-14T06:03:21.721Z,5.70
2018-11-14T06:05:49.807Z,5.13
2018-11-14T06:08:17.895Z,5.67
2018-11-14T06:10:45.988Z,5.03
2018-11-14T06:13:14.120Z,4.63
2018-11-14T06:15:42.219Z,4.60
2018-11-14T06:18:10.301Z,4.47
2018-11-14T06:20:38.375Z,4.13
2018-11-14T06:23:06.486Z,5.07
2018-11-14T06:25:35.743Z,5.03
2018-11-14T06:28:05.790Z,5.10
2018-11-14T06:30:34.555Z,5.07
2018-11-14T06:33:03.560Z,4.70
2018-11-14T06:35:31.640Z,6.00
2018-11-14T06:37:59.733Z,6.30
2018-11-14T06:40:27.837Z,6.20
2018-11-14T06:42:55.931Z,5.93
2018-11-14T06:45:25.284Z,5.33
2018-11-14T06:47:54.559Z,5.70
2018-11-14T06:50:22.694Z,5.80
2018-11-14T06:52:52.337Z,5.67
2018-11-14T06:55:20.807Z,5.67
2018-11-14T06:57:48.901Z,5.73
2018-11-14T07:00:23.155Z,5.50
2018-11-14T07:02:51.816Z,6.50
2018-11-14T07:05:19.989Z,6.30
2018-11-14T07:07:48.017Z,7.60
2018-11-14T07:10:18.791Z,7.07
2018-11-14T07:12:46.862Z,6.40
2018-11-14T07:15:16.261Z,6.97
2018-11-14T07:17:45.049Z,6.77
2018-11-14T07:20:20.298Z,5.73
2018-11-14T07:22:48.381Z,6.27
2018-11-14T07:25:17.046Z,6.13
2018-11-14T07:27:45.413Z,6.20
2018-11-14T07:30:17.693Z,6.30
2018-11-14T07:32:47.083Z,5.60
2018-11-14T07:35:15.987Z,5.80
2018-11-14T07:37:48.491Z,5.23
2018-11-14T07:40:16.572Z,5.33
2018-11-14T07:42:44.647Z,6.30
2018-11-14T07:45:14.010Z,7.47
2018-11-14T07:47:42.281Z,7.10
2018-11-14T07:50:15.362Z,16.30
2018-11-14T07:52:44.296Z,8.13
2018-11-14T07:55:12.859Z,10.73
2018-11-14T07:57:40.967Z,13.57
2018-11-14T08:00:13.535Z,14.37
2018-11-14T08:02:41.632Z,15.40
2018-11-14T08:05:09.825Z,8.70
2018-11-14T08:07:37.931Z,11.60
2018-11-14T08:10:08.067Z,41.70
2018-11-14T08:12:36.156Z,12.00
2018-11-14T08:15:04.289Z,15.90
2018-11-14T08:17:32.391Z,16.53
2018-11-14T08:20:00.861Z,20.43
2018-11-14T08:22:28.945Z,17.33
2018-11-14T08:24:57.080Z,10.63
2018-11-14T08:27:25.177Z,11.33
2018-11-14T08:29:53.262Z,8.63
2018-11-14T08:32:21.347Z,10.00
2018-11-14T08:34:49.419Z,10.10
2018-11-14T08:37:17.494Z,9.97
2018-11-14T08:39:45.570Z,10.57
2018-11-14T08:42:13.654Z,10.90
2018-11-14T08:44:41.729Z,9.00
2018-11-14T08:47:09.911Z,10.17
2018-11-14T08:49:37.997Z,11.30
2018-11-14T08:52:06.103Z,10.17
2018-11-14T08:54:34.185Z,11.20
2018-11-14T08:57:02.275Z,11.30
2018-11-14T08:59:30.350Z,12.43
2018-11-14T09:01:58.438Z,12.17
2018-11-14T09:04:26.510Z,11.53
2018-11-14T09:06:54.599Z,11.00
2018-11-14T09:09:22.671Z,9.23
2018-11-14T09:11:50.756Z,9.57
2018-11-14T09:14:18.880Z,7.60
2018-11-14T09:16:46.933Z,9.17
2018-11-14T09:19:15.002Z,10.33
2018-11-14T09:21:43.173Z,9.37
2018-11-14T09:24:11.242Z,9.57
2018-11-14T09:26:39.320Z,9.43
2018-11-14T09:29:07.407Z,8.03
2018-11-14T09:31:35.477Z,8.73
2018-11-14T09:34:03.638Z,9.03
2018-11-14T09:36:31.642Z,10.07
2018-11-14T09:38:59.729Z,12.47
2018-11-14T09:41:27.895Z,17.40
2018-11-14T09:43:55.927Z,9.83
2018-11-14T09:46:24.051Z,7.60
2018-11-14T09:48:52.134Z,6.17
2018-11-14T09:51:20.206Z,7.07
2018-11-14T09:53:48.287Z,9.30
2018-11-14T09:56:16.400Z,8.30
2018-11-14T09:58:44.489Z,8.00
2018-11-14T10:01:12.507Z,7.80
2018-11-14T10:03:40.618Z,7.90
2018-11-14T10:06:08.678Z,8.13
2018-11-14T10:08:36.811Z,7.97
2018-11-14T10:11:05.209Z,8.03
2018-11-14T10:13:33.286Z,6.80
2018-11-14T10:16:01.358Z,6.50
2018-11-14T10:18:29.511Z,6.93
2018-11-14T10:20:57.550Z,5.80
2018-11-14T10:23:25.632Z,6.70
2018-11-14T10:25:53.707Z,6.30
2018-11-14T10:28:21.821Z,6.87
2018-11-14T10:30:49.892Z,4.20
2018-11-14T10:33:17.969Z,5.73
2018-11-14T10:35:46.046Z,7.37
2018-11-14T10:38:14.121Z,5.93
2018-11-14T10:40:42.206Z,5.70
2018-11-14T10:43:10.376Z,7.27
2018-11-14T10:45:38.365Z,7.70
2018-11-14T10:48:06.442Z,7.27
2018-11-14T10:50:34.527Z,6.80
2018-11-14T10:53:02.621Z,7.67
2018-11-14T10:55:30.709Z,7.70
2018-11-14T10:57:58.867Z,8.17
2018-11-14T11:00:32.546Z,7.53
2018-11-14T11:03:06.894Z,8.23
2018-11-14T11:05:44.083Z,6.67
2018-11-14T11:08:18.544Z,3.17
2018-11-14T11:10:48.167Z,7.03
2018-11-14T11:13:21.571Z,6.67
2018-11-14T11:15:55.086Z,6.77
2018-11-14T11:18:26.403Z,4.10
2018-11-14T11:20:54.546Z,6.93
2018-11-14T11:23:22.715Z,3.37
2018-11-14T11:25:50.741Z,7.03
2018-11-14T11:28:18.845Z,3.37
2018-11-14T11:30:47.030Z,9.30
2018-11-14T11:33:15.038Z,8.37
2018-11-14T11:35:43.148Z,7.50
2018-11-14T11:38:11.246Z,7.70
2018-11-14T11:40:39.343Z,6.17
2018-11-14T11:43:07.462Z,6.03
2018-11-14T11:45:36.019Z,8.63
2018-11-14T11:48:04.119Z,3.63
2018-11-14T11:50:32.333Z,8.90
2018-11-14T11:53:00.858Z,9.60
2018-11-14T11:55:28.934Z,9.43
2018-11-14T11:57:57.057Z,10.10
2018-11-14T12:00:25.261Z,7.70
2018-11-14T12:02:53.245Z,7.70
2018-11-14T12:05:21.331Z,10.40
2018-11-14T12:07:49.428Z,7.83
2018-11-14T12:10:17.514Z,10.23
2018-11-14T12:12:46.063Z,6.93
2018-11-14T12:15:14.630Z,10.73
2018-11-14T12:17:43.256Z,4.30
2018-11-14T12:20:12.923Z,10.10
2018-11-14T12:22:41.621Z,9.70
2018-11-14T12:25:11.728Z,10.57
2018-11-14T12:27:39.953Z,10.20
2018-11-14T12:30:11.093Z,10.70
2018-11-14T12:32:39.335Z,10.93
2018-11-14T12:35:08.653Z,9.83
2018-11-14T12:37:36.689Z,8.70
2018-11-14T12:40:05.182Z,9.90
2018-11-14T12:42:33.281Z,10.80
2018-11-14T12:45:01.462Z,10.70
2018-11-14T12:47:29.478Z,10.57
2018-11-14T12:49:57.644Z,9.60
2018-11-14T12:52:25.745Z,9.37
2018-11-14T12:54:53.824Z,10.50
2018-11-14T12:57:21.932Z,10.13
2018-11-14T12:59:50.030Z,10.77
2018-11-14T13:02:18.159Z,9.80
2018-11-14T13:04:46.218Z,8.03
2018-11-14T13:07:14.358Z,7.90
2018-11-14T13:09:42.449Z,8.03
2018-11-14T13:12:10.946Z,8.00
2018-11-14T13:14:39.089Z,7.97
2018-11-14T13:17:07.174Z,7.77
2018-11-14T13:19:35.337Z,8.10
2018-11-14T13:22:03.515Z,8.07
2018-11-14T13:24:31.823Z,8.07
2018-11-14T13:27:00.303Z,9.40
2018-11-14T13:29:28.685Z,8.07
2018-11-14T13:31:56.753Z,8.40
2018-11-14T13:34:25.145Z,9.17
2018-11-14T13:36:53.233Z,9.60
2018-11-14T13:39:21.327Z,10.00
2018-11-14T13:41:49.506Z,9.20
2018-11-14T13:44:17.593Z,9.40
2018-11-14T13:46:45.673Z,10.80
2018-11-14T13:49:14.178Z,9.40
2018-11-14T13:51:41.914Z,10.20
2018-11-14T13:54:09.998Z,10.63
2018-11-14T13:56:38.087Z,10.93
2018-11-14T13:59:06.498Z,10.27
2018-11-14T14:01:34.580Z,9.77
2018-11-14T14:04:02.669Z,10.70
2018-11-14T14:06:30.954Z,9.67
2018-11-14T14:08:59.083Z,10.80
2018-11-14T14:11:27.349Z,9.20
2018-11-14T14:14:00.933Z,11.30
2018-11-14T14:16:29.165Z,10.77
2018-11-14T14:18:57.089Z,9.97
2018-11-14T14:21:25.381Z,9.40
2018-11-14T14:23:53.460Z,13.00
2018-11-14T14:26:21.551Z,11.03
2018-11-14T14:28:49.649Z,14.53
2018-11-14T14:31:17.747Z,14.37
2018-11-14T14:33:45.839Z,35.20
2018-11-14T14:36:13.943Z,22.63
2018-11-14T14:38:42.034Z,26.67
2018-11-14T14:41:10.132Z,35.47
2018-11-14T14:43:38.293Z,32.10
2018-11-14T14:46:06.590Z,16.90
2018-11-14T14:48:34.695Z,16.53
2018-11-14T14:51:02.829Z,16.97
2018-11-14T14:53:30.915Z,17.73
2018-11-14T14:55:59.012Z,19.67
2018-11-14T14:58:27.104Z,18.23
2018-11-14T15:00:55.212Z,16.30
2018-11-14T15:03:23.305Z,17.90
2018-11-14T15:05:51.404Z,20.67
2018-11-14T15:08:19.501Z,19.47
2018-11-14T15:10:47.590Z,17.83
2018-11-14T15:13:15.678Z,20.30
2018-11-14T15:15:43.886Z,20.27
2018-11-14T15:18:11.871Z,16.57
2018-11-14T15:20:39.989Z,16.97
2018-11-14T15:23:08.078Z,20.30
2018-11-14T15:25:36.167Z,16.00
2018-11-14T15:28:04.272Z,16.77
2018-11-14T15:30:32.350Z,16.30
2018-11-14T15:33:00.444Z,20.37
2018-11-14T15:35:28.523Z,21.80
2018-11-14T15:37:56.702Z,23.37
2018-11-14T15:40:25.938Z,25.37
2018-11-14T15:42:54.094Z,21.13
2018-11-14T15:45:23.627Z,20.27
2018-11-14T15:47:51.800Z,26.53
2018-11-14T15:50:21.094Z,20.73
2018-11-14T15:52:50.000Z,21.17
2018-11-14T15:55:19.084Z,18.87
2018-11-14T15:57:47.288Z,19.10
2018-11-14T16:00:17.479Z,16.70
2018-11-14T16:02:45.568Z,15.97
2018-11-14T16:05:15.165Z,17.40
2018-11-14T16:07:44.274Z,17.63
2018-11-14T16:10:13.462Z,21.43
2018-11-14T16:12:42.188Z,20.27
2018-11-14T16:15:12.061Z,20.83
2018-11-14T16:17:40.543Z,21.13
2018-11-14T16:20:10.265Z,22.30
2018-11-14T16:22:38.419Z,21.10
2018-11-14T16:25:07.896Z,19.23
2018-11-14T16:27:35.960Z,21.63
2018-11-14T16:30:05.124Z,13.73
2018-11-14T16:32:33.265Z,15.27
2018-11-14T16:35:01.363Z,17.63
2018-11-14T16:37:29.452Z,17.17
2018-11-14T16:39:57.564Z,20.33
2018-11-14T16:42:25.655Z,22.67
2018-11-14T16:44:53.767Z,23.53
2018-11-14T16:47:21.861Z,20.87
2018-11-14T16:49:49.959Z,24.10
2018-11-14T16:52:18.056Z,21.47
2018-11-14T16:54:46.155Z,20.73
2018-11-14T16:57:14.251Z,21.20
2018-11-14T16:59:42.347Z,20.40
2018-11-14T17:02:10.493Z,23.10
2018-11-14T17:04:38.591Z,18.87
2018-11-14T17:07:06.725Z,19.50
2018-11-14T17:09:34.824Z,21.20
2018-11-14T17:12:02.917Z,21.70
2018-11-14T17:14:31.016Z,22.60
2018-11-14T17:16:59.103Z,23.07
2018-11-14T17:19:27.208Z,23.23
2018-11-14T17:21:55.296Z,21.40
2018-11-14T17:24:23.410Z,24.47
2018-11-14T17:26:51.485Z,26.90
2018-11-14T17:29:19.595Z,24.10
2018-11-14T17:31:47.696Z,22.20
2018-11-14T17:34:15.814Z,23.07
2018-11-14T17:36:43.902Z,22.67
2018-11-14T17:39:13.294Z,22.47
2018-11-14T17:41:41.857Z,22.07
2018-11-14T17:44:09.910Z,22.97
2018-11-14T17:46:38.012Z,19.70
2018-11-14T17:49:06.261Z,25.60
2018-11-14T17:51:34.369Z,22.03
2018-11-14T17:54:02.507Z,22.03
2018-11-14T17:56:30.607Z,24.17
2018-11-14T17:58:58.720Z,25.07
2018-11-14T18:01:26.822Z,24.30
2018-11-14T18:03:54.910Z,27.73
2018-11-14T18:06:23.082Z,23.20
2018-11-14T18:08:51.178Z,23.80
2018-11-14T18:11:19.338Z,22.53
2018-11-14T18:13:47.432Z,24.70
2018-11-14T18:16:15.534Z,21.37
2018-11-14T18:18:43.635Z,24.40
2018-11-14T18:21:11.730Z,24.17
2018-11-14T18:23:39.818Z,24.67
2018-11-14T18:26:07.926Z,25.23
2018-11-14T18:28:36.027Z,18.20
2018-11-14T18:31:04.139Z,23.47
2018-11-14T18:33:32.225Z,21.17
2018-11-14T18:36:00.321Z,22.17
2018-11-14T18:38:28.512Z,21.57
2018-11-14T18:40:56.706Z,20.77
2018-11-14T18:43:24.793Z,18.80
2018-11-14T18:45:52.948Z,20.87
2018-11-14T18:48:20.991Z,21.30
2018-11-14T18:50:49.096Z,21.60
2018-11-14T18:53:17.212Z,19.20
2018-11-14T18:55:45.277Z,18.47
2018-11-14T18:58:13.361Z,18.60
2018-11-14T19:00:41.461Z,16.70
2018-11-14T19:03:09.549Z,20.40
2018-11-14T19:05:38.488Z,18.97
2018-11-14T19:08:06.581Z,16.10
2018-11-14T19:10:35.045Z,18.57
2018-11-14T19:13:03.137Z,17.57
2018-11-14T19:15:32.625Z,16.23
2018-11-14T19:18:00.754Z,21.87
2018-11-14T19:20:30.089Z,16.80
2018-11-14T19:22:58.989Z,16.23
2018-11-14T19:25:29.511Z,15.53
2018-11-14T19:27:57.656Z,13.87
2018-11-14T19:30:28.083Z,14.67
2018-11-14T19:32:56.710Z,16.57
2018-11-14T19:35:24.785Z,15.47
2018-11-14T19:37:53.672Z,14.77
2018-11-14T19:40:27.162Z,15.83
2018-11-14T19:42:56.679Z,14.93
2018-11-14T19:45:26.075Z,16.03
2018-11-14T19:47:54.357Z,17.13
2018-11-14T19:50:22.983Z,17.87
2018-11-14T19:52:51.432Z,17.47
2018-11-14T19:55:21.024Z,16.67
2018-11-14T19:57:50.163Z,18.30
2018-11-14T20:00:24.850Z,15.90
2018-11-14T20:02:52.962Z,16.20
2018-11-14T20:05:21.512Z,16.40
2018-11-14T20:07:49.696Z,15.03
2018-11-14T20:10:19.115Z,18.87
2018-11-14T20:12:47.646Z,17.03
2018-11-14T20:15:17.188Z,14.20
2018-11-14T20:17:45.783Z,15.27
2018-11-14T20:20:20.498Z,14.40
2018-11-14T20:22:48.662Z,16.53
2018-11-14T20:25:16.746Z,13.80
2018-11-14T20:27:45.316Z,15.37
2018-11-14T20:30:20.682Z,16.80
2018-11-14T20:32:49.355Z,15.50
2018-11-14T20:35:18.665Z,15.97
2018-11-14T20:37:46.737Z,17.30
2018-11-14T20:40:16.037Z,17.70
2018-11-14T20:42:44.522Z,14.00
2018-11-14T20:45:15.228Z,14.10
2018-11-14T20:47:43.315Z,12.87
2018-11-14T20:50:14.982Z,14.37
2018-11-14T20:52:43.547Z,16.83
2018-11-14T20:55:17.679Z,13.90
2018-11-14T20:57:45.803Z,15.60
2018-11-14T21:00:21.932Z,15.30
2018-11-14T21:02:50.378Z,16.47
2018-11-14T21:05:18.539Z,14.73
2018-11-14T21:07:46.648Z,16.50
2018-11-14T21:10:16.013Z,15.53
2018-11-14T21:12:44.275Z,15.67
2018-11-14T21:15:15.385Z,11.23
2018-11-14T21:17:43.595Z,11.50
2018-11-14T21:20:11.803Z,14.03
2018-11-14T21:22:40.502Z,15.00
2018-11-14T21:25:10.246Z,14.80
2018-11-14T21:27:38.547Z,14.13
2018-11-14T21:30:08.575Z,12.23
2018-11-14T21:32:36.864Z,14.53
2018-11-14T21:35:07.086Z,12.37
2018-11-14T21:37:35.161Z,17.20
2018-11-14T21:40:03.524Z,15.90
2018-11-14T21:42:31.500Z,16.67
2018-11-14T21:44:59.588Z,15.63
2018-11-14T21:47:33.325Z,16.03
2018-11-14T21:50:01.548Z,17.40
2018-11-14T21:52:29.643Z,14.50
2018-11-14T21:54:57.723Z,17.03
2018-11-14T21:57:25.793Z,17.17
2018-11-14T21:59:54.076Z,16.73
2018-11-14T22:02:22.020Z,14.40
2018-11-14T22:04:50.133Z,14.87
2018-11-14T22:07:18.212Z,15.17
2018-11-14T22:09:46.289Z,13.57
2018-11-14T22:12:14.368Z,16.83
2018-11-14T22:14:42.436Z,15.47
2018-11-14T22:17:10.518Z,17.17
2018-11-14T22:19:38.588Z,18.00
2018-11-14T22:22:06.658Z,16.37
2018-11-14T22:24:34.732Z,17.43
2018-11-14T22:27:02.813Z,16.83
2018-11-14T22:29:30.908Z,16.23
2018-11-14T22:31:58.996Z,17.60
2018-11-14T22:34:27.072Z,17.23
2018-11-14T22:36:55.199Z,18.03
2018-11-14T22:39:23.283Z,11.90
2018-11-14T22:41:51.372Z,17.27
2018-11-14T22:44:19.456Z,13.83
2018-11-14T22:46:47.543Z,17.87
2018-11-14T22:49:15.624Z,15.77
2018-11-14T22:51:43.740Z,18.90
2018-11-14T22:54:11.825Z,18.00
2018-11-14T22:56:39.905Z,16.10
2018-11-14T22:59:08.000Z,15.20
2018-11-14T23:01:36.117Z,13.67
2018-11-14T23:04:04.339Z,19.67
2018-11-14T23:06:32.427Z,19.87
2018-11-14T23:09:00.518Z,16.63
2018-11-14T23:11:28.602Z,18.37
2018-11-14T23:13:56.695Z,18.33
2018-11-14T23:16:24.770Z,21.00
2018-11-14T23:18:52.863Z,18.20
2018-11-14T23:21:20.962Z,17.13
2018-11-14T23:23:49.048Z,19.80
2018-11-14T23:26:17.142Z,17.10
2018-11-14T23:28:45.232Z,17.73
2018-11-14T23:31:13.299Z,20.10
2018-11-14T23:33:41.380Z,19.87
2018-11-14T23:36:09.447Z,18.47
2018-11-14T23:38:37.533Z,19.60
2018-11-14T23:41:05.906Z,19.53
2018-11-14T23:43:33.984Z,20.53
2018-11-14T23:46:02.057Z,19.97
2018-11-14T23:48:30.131Z,21.47
2018-11-14T23:50:58.204Z,20.33
2018-11-14T23:53:26.279Z,20.37
2018-11-14T23:55:54.361Z,19.50
2018-11-14T23:58:22.449Z,20.93
